sensor_id;sensor_type;location;lat;lon;timestamp;P1;durP1;ratioP1;P2;durP2;ratioP2
49980;SDS011;35871;51.594;7.138;2022-08-19T06:33:31;10.05;;;9.10;;
49980;SDS011;35871;51.594;7.138;2022-08-19T06:39:15;10.05;;;8.25;;
49980;SDS011;35871;51.594;7.138;2022-08-19T06:44:20;10.25;;;7.90;;
49980;SDS011;35871;51.594;7.138;2022-08-19T06:49:22;11.57;;;7.75;;
49980;SDS011;35871;51.594;7.138;2022-08-19T06:54:36;8.63;;;7.73;;
49980;SDS011;35871;51.594;7.138;2022-08-19T06:59:48;8.85;;;8.00;;
49980;SDS011;35871;51.594;7.138;2022-08-19T07:04:56;7.82;;;6.20;;
49980;SDS011;35871;51.594;7.138;2022-08-19T07:10:05;7.72;;;6.50;;
49980;SDS011;35871;51.594;7.138;2022-08-19T07:15:09;11.57;;;8.55;;
49980;SDS011;35871;51.594;7.138;2022-08-19T07:20:14;15.13;;;11.38;;
49980;SDS011;35871;51.594;7.138;2022-08-19T07:25:19;11.13;;;10.00;;
49980;SDS011;35871;51.594;7.138;2022-08-19T07:30:21;9.40;;;8.07;;
49980;SDS011;35871;51.594;7.138;2022-08-19T07:35:24;8.95;;;7.00;;
49980;SDS011;35871;51.594;7.138;2022-08-19T07:40:25;10.48;;;8.82;;
49980;SDS011;35871;51.594;7.138;2022-08-19T07:45:30;13.88;;;12.50;;
49980;SDS011;35871;51.594;7.138;2022-08-19T07:50:36;14.60;;;13.20;;
49980;SDS011;35871;51.594;7.138;2022-08-19T07:55:39;8.52;;;7.30;;
49980;SDS011;35871;51.594;7.138;2022-08-19T08:00:41;8.95;;;7.85;;
49980;SDS011;35871;51.594;7.138;2022-08-19T08:05:42;11.40;;;10.18;;
49980;SDS011;35871;51.594;7.138;2022-08-19T08:16:03;11.98;;;8.90;;
49980;SDS011;35871;51.594;7.138;2022-08-19T08:21:05;12.32;;;11.13;;
49980;SDS011;35871;51.594;7.138;2022-08-19T08:26:06;13.65;;;12.13;;
49980;SDS011;35871;51.594;7.138;2022-08-19T08:31:08;9.27;;;8.27;;
49980;SDS011;35871;51.594;7.138;2022-08-19T08:36:10;11.80;;;10.57;;
49980;SDS011;35871;51.594;7.138;2022-08-19T08:46:42;9.18;;;8.32;;
49980;SDS011;35871;51.594;7.138;2022-08-19T08:51:51;14.85;;;13.40;;
49980;SDS011;35871;51.594;7.138;2022-08-19T08:56:53;11.18;;;10.05;;
49980;SDS011;35871;51.594;7.138;2022-08-19T09:02:00;12.52;;;11.20;;
49980;SDS011;35871;51.594;7.138;2022-08-19T09:18:02;11.32;;;10.18;;
49980;SDS011;35871;51.594;7.138;2022-08-19T09:45:53;12.25;;;10.15;;
49980;SDS011;35871;51.594;7.138;2022-08-19T09:51:16;19.15;;;15.98;;
49980;SDS011;35871;51.594;7.138;2022-08-19T09:57:00;12.13;;;9.43;;
49980;SDS011;35871;51.594;7.138;2022-08-19T10:02:42;15.00;;;13.48;;
49980;SDS011;35871;51.594;7.138;2022-08-19T10:08:05;13.00;;;10.75;;
49980;SDS011;35871;51.594;7.138;2022-08-19T10:13:08;11.27;;;8.98;;
49980;SDS011;35871;51.594;7.138;2022-08-19T10:18:14;11.48;;;10.25;;
49980;SDS011;35871;51.594;7.138;2022-08-19T10:23:18;10.13;;;9.23;;
49980;SDS011;35871;51.594;7.138;2022-08-19T10:28:20;10.23;;;9.25;;
49980;SDS011;35871;51.594;7.138;2022-08-19T10:33:22;12.05;;;10.80;;
49980;SDS011;35871;51.594;7.138;2022-08-19T10:38:41;11.70;;;10.13;;
49980;SDS011;35871;51.594;7.138;2022-08-19T11:12:25;10.50;;;9.50;;
49980;SDS011;35871;51.594;7.138;2022-08-19T11:29:46;10.65;;;9.65;;
49980;SDS011;35871;51.594;7.138;2022-08-19T11:35:21;15.17;;;13.57;;
49980;SDS011;35871;51.594;7.138;2022-08-19T11:40:23;11.15;;;8.90;;
49980;SDS011;35871;51.594;7.138;2022-08-19T11:45:27;13.13;;;11.93;;
49980;SDS011;35871;51.594;7.138;2022-08-19T11:50:29;13.70;;;12.40;;
49980;SDS011;35871;51.594;7.138;2022-08-19T11:55:30;11.43;;;10.32;;
49980;SDS011;35871;51.594;7.138;2022-08-19T12:18:07;12.07;;;11.00;;
49980;SDS011;35871;51.594;7.138;2022-08-19T12:23:09;10.55;;;9.15;;
49980;SDS011;35871;51.594;7.138;2022-08-19T12:28:10;9.65;;;8.57;;
49980;SDS011;35871;51.594;7.138;2022-08-19T12:33:12;9.73;;;8.73;;
49980;SDS011;35871;51.594;7.138;2022-08-19T12:38:13;11.10;;;9.98;;
49980;SDS011;35871;51.594;7.138;2022-08-19T12:43:18;12.48;;;9.35;;
49980;SDS011;35871;51.594;7.138;2022-08-19T12:48:20;9.60;;;8.70;;
49980;SDS011;35871;51.594;7.138;2022-08-19T12:53:21;10.07;;;9.20;;
49980;SDS011;35871;51.594;7.138;2022-08-19T12:58:22;9.63;;;8.63;;
49980;SDS011;35871;51.594;7.138;2022-08-19T13:03:23;11.30;;;8.82;;
49980;SDS011;35871;51.594;7.138;2022-08-19T13:08:29;9.63;;;8.65;;
49980;SDS011;35871;51.594;7.138;2022-08-19T13:13:30;8.68;;;7.88;;
49980;SDS011;35871;51.594;7.138;2022-08-19T13:18:31;9.02;;;7.20;;
49980;SDS011;35871;51.594;7.138;2022-08-19T13:23:32;9.70;;;7.25;;
49980;SDS011;35871;51.594;7.138;2022-08-19T13:28:34;7.57;;;6.85;;
49980;SDS011;35871;51.594;7.138;2022-08-19T13:33:54;8.43;;;7.15;;
49980;SDS011;35871;51.594;7.138;2022-08-19T13:38:55;7.15;;;6.50;;
49980;SDS011;35871;51.594;7.138;2022-08-19T13:43:56;7.60;;;5.97;;
49980;SDS011;35871;51.594;7.138;2022-08-19T13:48:58;7.20;;;6.35;;
49980;SDS011;35871;51.594;7.138;2022-08-19T13:54:02;7.47;;;5.72;;
49980;SDS011;35871;51.594;7.138;2022-08-19T13:59:03;5.63;;;5.13;;
49980;SDS011;35871;51.594;7.138;2022-08-19T14:04:06;6.15;;;5.53;;
49980;SDS011;35871;51.594;7.138;2022-08-19T14:09:07;5.00;;;4.60;;
49980;SDS011;35871;51.594;7.138;2022-08-19T14:14:08;6.85;;;5.05;;
49980;SDS011;35871;51.594;7.138;2022-08-19T14:19:09;5.80;;;5.20;;
49980;SDS011;35871;51.594;7.138;2022-08-19T14:24:17;7.43;;;5.00;;
49980;SDS011;35871;51.594;7.138;2022-08-19T14:29:18;6.65;;;5.32;;
49980;SDS011;35871;51.594;7.138;2022-08-19T14:34:19;5.80;;;4.57;;
49980;SDS011;35871;51.594;7.138;2022-08-19T14:39:23;7.13;;;5.43;;
49980;SDS011;35871;51.594;7.138;2022-08-19T14:44:27;7.78;;;5.15;;
49980;SDS011;35871;51.594;7.138;2022-08-19T14:49:28;7.80;;;6.03;;
49980;SDS011;35871;51.594;7.138;2022-08-19T14:54:29;5.93;;;5.32;;
49980;SDS011;35871;51.594;7.138;2022-08-19T14:59:31;10.63;;;9.63;;
49980;SDS011;35871;51.594;7.138;2022-08-19T15:04:33;8.40;;;7.60;;
49980;SDS011;35871;51.594;7.138;2022-08-19T15:09:34;8.85;;;8.05;;
49980;SDS011;35871;51.594;7.138;2022-08-19T15:14:36;8.30;;;7.50;;
49980;SDS011;35871;51.594;7.138;2022-08-19T15:19:56;8.73;;;7.82;;
49980;SDS011;35871;51.594;7.138;2022-08-19T15:24:58;9.85;;;8.93;;
49980;SDS011;35871;51.594;7.138;2022-08-19T15:29:59;9.00;;;8.20;;
49980;SDS011;35871;51.594;7.138;2022-08-19T15:35:00;10.48;;;9.38;;
49980;SDS011;35871;51.594;7.138;2022-08-19T15:40:06;11.27;;;9.85;;
49980;SDS011;35871;51.594;7.138;2022-08-19T15:45:14;8.43;;;7.72;;
49980;SDS011;35871;51.594;7.138;2022-08-19T15:50:20;9.40;;;8.10;;
49980;SDS011;35871;51.594;7.138;2022-08-19T15:55:23;9.30;;;8.32;;
49980;SDS011;35871;51.594;7.138;2022-08-19T16:00:25;8.93;;;8.02;;
49980;SDS011;35871;51.594;7.138;2022-08-19T16:05:45;9.70;;;7.93;;
49980;SDS011;35871;51.594;7.138;2022-08-19T16:11:05;9.43;;;8.52;;
49980;SDS011;35871;51.594;7.138;2022-08-19T16:16:06;9.05;;;8.15;;
49980;SDS011;35871;51.594;7.138;2022-08-19T16:21:07;8.52;;;7.63;;
49980;SDS011;35871;51.594;7.138;2022-08-19T16:26:09;11.55;;;8.80;;
49980;SDS011;35871;51.594;7.138;2022-08-19T16:31:11;10.85;;;8.98;;
49980;SDS011;35871;51.594;7.138;2022-08-19T16:36:15;10.00;;;8.00;;
49980;SDS011;35871;51.594;7.138;2022-08-19T17:03:48;9.85;;;8.73;;
